createdAt,value
2022-08-03T00:01:50.589Z,22.41
2022-08-03T00:04:17.463Z,22.32
2022-08-03T00:06:44.270Z,22.22
2022-08-03T00:09:11.484Z,22.16
2022-08-03T00:11:38.496Z,22.07
2022-08-03T00:14:06.588Z,21.97
2022-08-03T00:16:33.627Z,21.88
2022-08-03T00:19:01.134Z,21.83
2022-08-03T00:21:29.108Z,21.74
2022-08-03T00:23:55.825Z,21.67
2022-08-03T00:26:22.421Z,21.60
2022-08-03T00:28:50.195Z,21.55
2022-08-03T00:31:16.941Z,21.46
2022-08-03T00:34:03.694Z,21.43
2022-08-03T00:36:30.808Z,21.37
2022-08-03T00:38:57.339Z,21.26
2022-08-03T00:41:23.849Z,21.24
2022-08-03T00:43:50.437Z,21.19
2022-08-03T00:46:21.287Z,21.14
2022-08-03T00:48:53.325Z,21.10
2022-08-03T00:51:23.974Z,21.04
2022-08-03T00:53:50.989Z,20.96
2022-08-03T00:56:18.330Z,20.90
2022-08-03T00:58:46.142Z,20.86
2022-08-03T01:01:13.428Z,20.78
2022-08-03T01:03:40.278Z,20.76
2022-08-03T01:06:15.843Z,20.73
2022-08-03T01:09:15.420Z,20.72
2022-08-03T01:12:10.561Z,20.65
2022-08-03T01:14:55.545Z,20.57
2022-08-03T01:17:49.624Z,20.60
2022-08-03T01:20:18.526Z,20.49
2022-08-03T01:23:17.361Z,20.52
2022-08-03T01:26:03.611Z,20.47
2022-08-03T01:29:00.954Z,20.47
2022-08-03T01:32:53.615Z,20.46
2022-08-03T01:34:47.663Z,20.42
2022-08-03T01:37:19.031Z,20.39
2022-08-03T01:39:45.912Z,20.38
2022-08-03T01:42:15.325Z,20.38
2022-08-03T01:44:44.998Z,20.35
2022-08-03T01:47:12.215Z,20.36
2022-08-03T01:49:43.277Z,20.35
2022-08-03T01:52:12.686Z,20.34
2022-08-03T01:54:45.085Z,20.35
2022-08-03T01:57:12.544Z,20.33
2022-08-03T01:59:40.570Z,20.29
2022-08-03T02:02:16.033Z,20.29
2022-08-03T02:04:58.414Z,20.28
2022-08-03T02:07:26.985Z,20.25
2022-08-03T02:09:55.621Z,20.22
2022-08-03T02:12:24.991Z,20.19
2022-08-03T02:14:52.007Z,20.17
2022-08-03T02:17:39.761Z,20.15
2022-08-03T02:20:09.273Z,20.10
2022-08-03T02:22:39.141Z,20.10
2022-08-03T02:25:06.737Z,20.09
2022-08-03T02:27:35.311Z,20.06
2022-08-03T02:30:08.635Z,20.02
2022-08-03T02:32:37.804Z,19.96
2022-08-03T02:35:07.047Z,19.99
2022-08-03T02:37:37.427Z,19.98
2022-08-03T02:40:12.052Z,19.95
2022-08-03T02:42:40.934Z,19.92
2022-08-03T02:45:13.834Z,19.91
2022-08-03T02:47:54.374Z,19.88
2022-08-03T02:50:23.059Z,19.85
2022-08-03T02:52:50.968Z,19.82
2022-08-03T02:55:20.484Z,19.83
2022-08-03T02:57:48.039Z,19.84
2022-08-03T03:00:27.687Z,19.85
2022-08-03T03:02:57.491Z,19.86
2022-08-03T03:05:52.873Z,19.88
2022-08-03T03:08:17.905Z,19.91
2022-08-03T03:10:47.716Z,19.90
2022-08-03T03:13:15.530Z,19.89
2022-08-03T03:15:44.223Z,19.89
2022-08-03T03:18:11.858Z,19.89
2022-08-03T03:20:40.815Z,19.88
2022-08-03T03:23:09.214Z,19.87
2022-08-03T03:25:36.436Z,19.85
2022-08-03T03:28:03.172Z,19.84
2022-08-03T03:30:33.574Z,19.83
2022-08-03T03:33:00.811Z,19.81
2022-08-03T03:35:27.996Z,19.78
2022-08-03T03:37:55.113Z,19.76
2022-08-03T03:40:22.542Z,19.74
2022-08-03T03:42:50.331Z,19.71
2022-08-03T03:45:17.830Z,19.69
2022-08-03T03:47:44.564Z,19.69
2022-08-03T03:50:11.683Z,19.68
2022-08-03T03:52:38.251Z,19.67
2022-08-03T03:55:05.177Z,19.65
2022-08-03T03:57:31.619Z,19.64
2022-08-03T03:59:58.084Z,19.66
2022-08-03T04:02:24.774Z,19.66
2022-08-03T04:05:09.925Z,19.67
2022-08-03T04:08:11.152Z,19.71
2022-08-03T04:10:59.998Z,19.71
2022-08-03T04:13:37.593Z,19.72
2022-08-03T04:16:07.155Z,19.70
2022-08-03T04:18:36.060Z,19.73
2022-08-03T04:21:05.239Z,19.74
2022-08-03T04:23:35.001Z,19.73
2022-08-03T04:26:04.008Z,19.75
2022-08-03T04:28:32.488Z,19.77
2022-08-03T04:31:01.237Z,19.80
2022-08-03T04:33:30.304Z,19.81
2022-08-03T04:36:02.342Z,19.84
2022-08-03T04:38:32.976Z,19.87
2022-08-03T04:41:01.058Z,19.88
2022-08-03T04:43:28.668Z,19.92
2022-08-03T04:45:56.484Z,19.94
2022-08-03T04:48:23.163Z,20.00
2022-08-03T04:50:49.936Z,20.02
2022-08-03T04:53:18.122Z,20.07
2022-08-03T04:55:46.307Z,20.12
2022-08-03T04:58:12.816Z,20.15
2022-08-03T05:00:39.379Z,20.18
2022-08-03T05:03:20.454Z,20.23
2022-08-03T05:06:01.980Z,20.29
2022-08-03T05:08:46.514Z,20.35
2022-08-03T05:11:13.614Z,20.42
2022-08-03T05:13:40.053Z,20.49
2022-08-03T05:16:06.494Z,20.55
2022-08-03T05:18:33.242Z,20.63
2022-08-03T05:20:59.644Z,20.72
2022-08-03T05:23:26.100Z,20.79
2022-08-03T05:25:52.620Z,20.89
2022-08-03T05:28:19.098Z,20.98
2022-08-03T05:30:46.289Z,21.08
2022-08-03T05:33:12.846Z,21.19
2022-08-03T05:35:57.956Z,21.32
2022-08-03T05:38:28.798Z,21.46
2022-08-03T05:41:21.021Z,21.58
2022-08-03T05:43:47.483Z,21.72
2022-08-03T05:46:14.342Z,21.88
2022-08-03T05:48:42.048Z,22.00
2022-08-03T05:51:11.776Z,22.15
2022-08-03T05:53:39.083Z,22.26
2022-08-03T05:56:14.220Z,22.48
2022-08-03T05:58:46.583Z,22.69
2022-08-03T06:01:13.503Z,22.91
2022-08-03T06:03:40.110Z,23.07
2022-08-03T06:06:06.560Z,23.26
2022-08-03T06:08:33.003Z,23.37
2022-08-03T06:10:59.563Z,23.50
2022-08-03T06:13:26.064Z,23.67
2022-08-03T06:15:52.508Z,23.85
2022-08-03T06:18:19.078Z,24.03
2022-08-03T06:20:45.562Z,24.17
2022-08-03T06:23:17.837Z,24.31
2022-08-03T06:25:46.507Z,24.44
2022-08-03T06:28:42.426Z,24.55
2022-08-03T06:31:01.224Z,24.66
2022-08-03T06:34:30.152Z,24.78
2022-08-03T06:36:14.582Z,24.92
2022-08-03T06:38:41.215Z,25.05
2022-08-03T06:41:07.634Z,25.17
2022-08-03T06:43:37.519Z,25.28
2022-08-03T06:46:05.607Z,25.40
2022-08-03T06:48:32.409Z,25.48
2022-08-03T06:50:59.306Z,25.57
2022-08-03T06:53:26.024Z,25.72
2022-08-03T06:55:54.887Z,25.85
2022-08-03T06:58:22.343Z,25.98
2022-08-03T07:00:48.816Z,26.10
2022-08-03T07:03:15.223Z,26.20
2022-08-03T07:05:42.906Z,26.32
2022-08-03T07:08:09.884Z,26.42
2022-08-03T07:10:36.909Z,26.53
2022-08-03T07:13:04.180Z,26.65
2022-08-03T07:15:53.984Z,26.74
2022-08-03T07:18:17.504Z,26.89
2022-08-03T07:20:54.096Z,27.00
2022-08-03T07:23:20.641Z,27.11
2022-08-03T07:25:47.143Z,27.24
2022-08-03T07:28:13.556Z,27.32
2022-08-03T07:30:40.032Z,27.36
2022-08-03T07:33:06.464Z,27.48
2022-08-03T07:35:32.892Z,27.53
2022-08-03T07:37:59.355Z,27.62
2022-08-03T07:40:28.672Z,27.67
2022-08-03T07:42:58.757Z,27.74
2022-08-03T07:45:26.619Z,27.79
2022-08-03T07:47:54.323Z,27.74
2022-08-03T07:50:22.451Z,27.77
2022-08-03T07:52:50.224Z,27.83
2022-08-03T07:55:18.763Z,27.92
2022-08-03T07:57:45.378Z,27.94
2022-08-03T08:00:19.369Z,28.05
2022-08-03T08:02:46.205Z,28.08
2022-08-03T08:05:12.959Z,28.18
2022-08-03T08:07:40.063Z,28.29
2022-08-03T08:10:08.133Z,28.39
2022-08-03T08:12:34.637Z,28.50
2022-08-03T08:15:01.514Z,28.51
2022-08-03T08:17:28.010Z,28.50
2022-08-03T08:19:54.533Z,28.53
2022-08-03T08:22:28.081Z,28.60
2022-08-03T08:24:57.722Z,28.63
2022-08-03T08:27:24.182Z,28.71
2022-08-03T08:29:54.244Z,28.77
2022-08-03T08:32:23.083Z,28.85
2022-08-03T08:34:49.655Z,28.91
2022-08-03T08:37:16.415Z,28.95
2022-08-03T08:39:42.854Z,29.06
2022-08-03T08:42:10.399Z,29.16
2022-08-03T08:44:38.923Z,29.21
2022-08-03T08:47:05.979Z,29.20
2022-08-03T08:49:35.734Z,29.25
2022-08-03T08:52:04.588Z,29.35
2022-08-03T08:54:54.957Z,29.46
2022-08-03T08:57:42.021Z,29.50
2022-08-03T09:00:14.602Z,29.57
2022-08-03T09:02:45.882Z,29.63
2022-08-03T09:05:13.945Z,29.67
2022-08-03T09:07:42.355Z,29.76
2022-08-03T09:10:13.233Z,29.83
2022-08-03T09:12:48.102Z,29.93
2022-08-03T09:15:33.970Z,30.00
2022-08-03T09:18:02.604Z,30.20
2022-08-03T09:20:31.796Z,30.40
2022-08-03T09:23:18.998Z,30.54
2022-08-03T09:25:58.528Z,30.82
2022-08-03T09:28:53.956Z,31.14
2022-08-03T09:31:30.134Z,31.47
2022-08-03T09:33:59.875Z,31.63
2022-08-03T09:36:42.990Z,31.99
2022-08-03T09:39:19.710Z,32.11
2022-08-03T09:42:06.229Z,32.35
2022-08-03T09:44:42.222Z,32.51
2022-08-03T09:47:11.187Z,32.70
2022-08-03T09:49:40.932Z,32.79
2022-08-03T09:52:31.861Z,33.03
2022-08-03T09:55:01.942Z,33.16
2022-08-03T09:57:30.773Z,33.32
2022-08-03T10:00:11.818Z,33.61
2022-08-03T10:02:39.491Z,33.73
2022-08-03T10:05:08.291Z,33.80
2022-08-03T10:07:49.773Z,34.08
2022-08-03T10:10:30.468Z,33.94
2022-08-03T10:13:00.027Z,34.04
2022-08-03T10:16:22.546Z,34.16
2022-08-03T10:18:13.545Z,34.37
2022-08-03T10:20:51.593Z,34.42
2022-08-03T10:23:21.484Z,34.47
2022-08-03T10:25:52.678Z,34.53
2022-08-03T10:28:21.207Z,34.54
2022-08-03T10:30:51.247Z,34.42
2022-08-03T10:33:52.120Z,34.65
2022-08-03T10:36:07.881Z,34.74
2022-08-03T10:38:47.213Z,34.84
2022-08-03T10:41:16.988Z,34.77
2022-08-03T10:43:58.478Z,34.78
2022-08-03T10:46:26.956Z,34.72
2022-08-03T10:48:54.304Z,34.60
2022-08-03T10:51:21.639Z,34.56
2022-08-03T10:53:55.325Z,34.54
2022-08-03T10:56:53.465Z,34.57
2022-08-03T10:59:46.704Z,34.66
2022-08-03T11:02:14.398Z,34.58
2022-08-03T11:04:41.864Z,34.61
2022-08-03T11:07:18.134Z,34.83
2022-08-03T11:09:51.280Z,34.87
2022-08-03T11:12:37.436Z,35.07
2022-08-03T11:15:07.536Z,35.07
2022-08-03T11:17:46.635Z,35.13
2022-08-03T11:20:53.446Z,35.40
2022-08-03T11:24:03.305Z,35.51
2022-08-03T11:26:30.720Z,35.38
2022-08-03T11:29:30.488Z,35.57
2022-08-03T11:31:57.345Z,35.50
2022-08-03T11:34:24.674Z,35.50
2022-08-03T11:37:26.328Z,35.53
2022-08-03T11:39:56.835Z,35.48
2022-08-03T11:42:23.396Z,35.53
2022-08-03T11:44:50.912Z,35.40
2022-08-03T11:47:18.193Z,35.52
2022-08-03T11:49:47.229Z,35.59
2022-08-03T11:52:14.836Z,35.68
2022-08-03T11:54:41.418Z,35.66
2022-08-03T11:57:07.919Z,35.75
2022-08-03T11:59:35.649Z,35.75
2022-08-03T12:02:13.425Z,35.97
2022-08-03T12:04:58.414Z,35.98
2022-08-03T12:08:03.338Z,35.95
2022-08-03T12:10:15.074Z,35.95
2022-08-03T12:12:46.406Z,36.00
2022-08-03T12:15:13.565Z,36.05
2022-08-03T12:17:41.656Z,36.15
2022-08-03T12:20:10.182Z,36.18
2022-08-03T12:22:40.485Z,36.36
2022-08-03T12:25:08.411Z,36.33
2022-08-03T12:27:36.073Z,36.34
2022-08-03T12:30:03.027Z,36.42
2022-08-03T12:32:30.618Z,36.35
2022-08-03T12:35:01.092Z,36.21
2022-08-03T12:37:29.124Z,36.34
2022-08-03T12:40:02.365Z,36.39
2022-08-03T12:42:38.682Z,36.39
2022-08-03T12:45:25.549Z,36.47
2022-08-03T12:48:02.500Z,36.46
2022-08-03T12:50:34.108Z,36.51
2022-08-03T12:53:04.554Z,36.51
2022-08-03T12:55:56.241Z,36.56
2022-08-03T12:58:34.201Z,36.74
2022-08-03T13:01:01.641Z,36.77
2022-08-03T13:03:50.196Z,36.85
2022-08-03T13:06:22.265Z,37.01
2022-08-03T13:08:49.400Z,37.06
2022-08-03T13:11:19.608Z,37.03
2022-08-03T13:13:46.271Z,36.99
2022-08-03T13:16:18.729Z,36.79
2022-08-03T13:18:47.242Z,36.70
2022-08-03T13:21:16.031Z,36.64
2022-08-03T13:23:43.804Z,36.65
2022-08-03T13:26:10.985Z,36.60
2022-08-03T13:28:38.380Z,36.72
2022-08-03T13:31:05.556Z,36.75
2022-08-03T13:33:33.804Z,36.87
2022-08-03T13:36:00.399Z,36.90
2022-08-03T13:38:27.313Z,37.02
2022-08-03T13:40:55.031Z,37.03
2022-08-03T13:43:22.490Z,37.08
2022-08-03T13:45:53.540Z,37.18
2022-08-03T13:48:35.916Z,37.27
2022-08-03T13:51:05.644Z,37.35
2022-08-03T13:53:48.179Z,37.26
2022-08-03T13:56:14.593Z,37.30
2022-08-03T13:58:41.055Z,37.20
2022-08-03T14:01:07.530Z,37.05
2022-08-03T14:03:34.219Z,37.00
2022-08-03T14:06:00.621Z,36.86
2022-08-03T14:08:27.057Z,36.80
2022-08-03T14:10:53.535Z,36.85
2022-08-03T14:13:20.003Z,36.85
2022-08-03T14:15:49.886Z,36.93
2022-08-03T14:18:28.673Z,37.02
2022-08-03T14:21:05.581Z,37.15
2022-08-03T14:23:34.062Z,37.25
2022-08-03T14:26:00.520Z,37.37
2022-08-03T14:28:27.094Z,37.41
2022-08-03T14:30:55.931Z,37.44
2022-08-03T14:33:23.347Z,37.51
2022-08-03T14:35:50.979Z,37.54
2022-08-03T14:38:18.267Z,37.63
2022-08-03T14:40:44.852Z,37.70
2022-08-03T14:43:11.300Z,37.64
2022-08-03T14:45:39.254Z,37.66
2022-08-03T14:50:29.295Z,37.64
2022-08-03T14:50:53.013Z,37.68
2022-08-03T14:53:20.028Z,37.76
2022-08-03T14:55:49.793Z,37.73
2022-08-03T14:58:22.504Z,37.85
2022-08-03T15:00:50.834Z,37.85
2022-08-03T15:03:21.383Z,37.83
2022-08-03T15:05:47.912Z,37.93
2022-08-03T15:08:14.557Z,37.97
2022-08-03T15:10:44.181Z,37.97
2022-08-03T15:13:12.824Z,37.96
2022-08-03T15:15:39.512Z,37.94
2022-08-03T15:18:06.104Z,37.87
2022-08-03T15:20:43.822Z,37.89
2022-08-03T15:23:11.923Z,38.13
2022-08-03T15:26:30.239Z,37.77
2022-08-03T15:28:25.033Z,37.63
2022-08-03T15:30:54.545Z,37.63
2022-08-03T15:33:21.195Z,37.50
2022-08-03T15:35:47.859Z,37.40
2022-08-03T15:38:14.454Z,37.24
2022-08-03T15:40:41.236Z,37.11
2022-08-03T15:43:08.005Z,37.01
2022-08-03T15:45:36.763Z,36.93
2022-08-03T15:48:05.627Z,36.92
2022-08-03T15:50:32.163Z,36.97
2022-08-03T15:52:58.586Z,36.95
2022-08-03T15:55:25.236Z,36.96
2022-08-03T15:59:03.928Z,37.04
2022-08-03T16:00:38.988Z,37.15
2022-08-03T16:03:05.788Z,37.17
2022-08-03T16:05:32.458Z,37.23
2022-08-03T16:08:03.512Z,37.27
2022-08-03T16:10:32.316Z,37.23
2022-08-03T16:13:00.037Z,37.16
2022-08-03T16:15:27.217Z,37.08
2022-08-03T16:17:53.969Z,36.96
2022-08-03T16:20:29.242Z,36.90
2022-08-03T16:23:05.496Z,36.79
2022-08-03T16:25:39.702Z,36.73
2022-08-03T16:28:13.474Z,36.64
2022-08-03T16:30:43.118Z,36.56
2022-08-03T16:33:10.857Z,36.49
2022-08-03T16:35:37.878Z,36.44
2022-08-03T16:38:10.002Z,36.37
2022-08-03T16:40:37.493Z,36.28
2022-08-03T16:43:17.908Z,36.22
2022-08-03T16:45:46.895Z,36.14
2022-08-03T16:48:16.968Z,36.05
2022-08-03T16:50:44.466Z,35.97
2022-08-03T16:53:15.606Z,35.94
2022-08-03T16:55:52.392Z,35.98
2022-08-03T16:58:34.335Z,36.05
2022-08-03T17:01:10.938Z,36.11
2022-08-03T17:04:02.672Z,36.18
2022-08-03T17:06:36.508Z,36.25
2022-08-03T17:09:19.076Z,36.40
2022-08-03T17:11:49.235Z,36.41
2022-08-03T17:14:17.530Z,36.55
2022-08-03T17:16:52.192Z,36.63
2022-08-03T17:19:21.693Z,36.60
2022-08-03T17:22:04.183Z,36.61
2022-08-03T17:24:34.162Z,36.44
2022-08-03T17:27:08.933Z,36.70
2022-08-03T17:29:44.881Z,36.31
2022-08-03T17:32:16.293Z,36.15
2022-08-03T17:34:47.188Z,36.07
2022-08-03T17:37:49.874Z,36.03
2022-08-03T17:40:01.193Z,35.98
2022-08-03T17:42:33.107Z,36.25
2022-08-03T17:45:03.761Z,35.93
2022-08-03T17:47:42.032Z,35.91
2022-08-03T17:50:25.275Z,35.87
2022-08-03T17:53:06.755Z,35.81
2022-08-03T17:55:55.170Z,35.64
2022-08-03T17:58:45.023Z,35.52
2022-08-03T18:02:06.491Z,35.35
2022-08-03T18:04:46.340Z,35.12
2022-08-03T18:07:25.610Z,34.97
2022-08-03T18:10:11.229Z,34.77
2022-08-03T18:12:54.264Z,34.68
2022-08-03T18:15:26.850Z,34.50
2022-08-03T18:18:02.116Z,34.28
2022-08-03T18:20:38.500Z,34.24
2022-08-03T18:23:10.293Z,34.14
2022-08-03T18:25:44.454Z,34.06
2022-08-03T18:28:14.582Z,33.99
2022-08-03T18:30:53.910Z,33.93
2022-08-03T18:34:17.380Z,33.82
2022-08-03T18:36:18.074Z,33.72
2022-08-03T18:38:51.653Z,33.56
2022-08-03T18:41:32.921Z,33.40
2022-08-03T18:44:07.941Z,33.21
2022-08-03T18:47:18.026Z,33.04
2022-08-03T18:50:07.669Z,32.78
2022-08-03T18:52:40.194Z,32.42
2022-08-03T18:55:33.141Z,32.16
2022-08-03T18:58:18.149Z,31.96
2022-08-03T19:01:00.057Z,31.71
2022-08-03T19:03:43.455Z,31.39
2022-08-03T19:06:19.970Z,31.21
2022-08-03T19:08:54.233Z,30.99
2022-08-03T19:12:14.332Z,30.81
2022-08-03T19:14:28.670Z,30.58
2022-08-03T19:17:07.079Z,30.39
2022-08-03T19:19:43.995Z,30.43
2022-08-03T19:22:16.008Z,30.03
2022-08-03T19:24:45.142Z,29.82
2022-08-03T19:27:12.315Z,29.69
2022-08-03T19:29:58.855Z,29.54
2022-08-03T19:32:32.022Z,29.37
2022-08-03T19:35:00.590Z,29.21
2022-08-03T19:37:38.705Z,29.07
2022-08-03T19:40:10.711Z,29.15
2022-08-03T19:42:44.110Z,28.86
2022-08-03T19:45:14.583Z,28.68
2022-08-03T19:48:01.508Z,28.59
2022-08-03T19:50:32.690Z,28.44
2022-08-03T19:53:06.795Z,28.31
2022-08-03T19:55:40.809Z,28.17
2022-08-03T19:58:17.787Z,28.05
2022-08-03T20:00:55.464Z,27.94
2022-08-03T20:03:24.929Z,27.81
2022-08-03T20:05:51.908Z,27.72
2022-08-03T20:08:20.696Z,27.61
2022-08-03T20:10:48.096Z,27.53
2022-08-03T20:13:19.399Z,27.43
2022-08-03T20:15:46.144Z,27.34
2022-08-03T20:18:16.747Z,27.26
2022-08-03T20:20:48.373Z,27.19
2022-08-03T20:23:19.612Z,27.11
2022-08-03T20:28:49.829Z,26.93
2022-08-03T20:31:18.655Z,26.83
2022-08-03T20:36:31.883Z,26.62
2022-08-03T20:38:58.958Z,26.60
2022-08-03T20:41:26.499Z,26.49
2022-08-03T20:43:52.997Z,26.45
2022-08-03T20:46:32.821Z,26.38
2022-08-03T20:49:04.526Z,26.31
2022-08-03T20:51:49.646Z,26.24
2022-08-03T20:54:29.797Z,26.15
2022-08-03T20:57:03.639Z,26.11
2022-08-03T20:59:46.828Z,26.02
2022-08-03T21:02:19.722Z,25.94
2022-08-03T21:04:57.234Z,25.86
2022-08-03T21:08:04.005Z,25.74
2022-08-03T21:10:15.495Z,25.72
2022-08-03T21:13:06.880Z,27.04
2022-08-03T21:13:07.168Z,26.75
2022-08-03T21:16:06.633Z,25.61
2022-08-03T21:18:44.389Z,25.52
2022-08-03T21:21:14.238Z,25.45
2022-08-03T21:23:49.142Z,25.40
2022-08-03T21:26:18.004Z,25.34
2022-08-03T21:28:49.279Z,25.28
2022-08-03T21:31:24.884Z,25.21
2022-08-03T21:33:57.500Z,25.11
2022-08-03T21:36:26.556Z,25.07
2022-08-03T21:38:56.647Z,25.03
2022-08-03T21:41:25.365Z,24.98
2022-08-03T21:43:51.938Z,24.93
2022-08-03T21:46:19.979Z,24.88
2022-08-03T21:48:51.445Z,24.83
2022-08-03T21:51:20.120Z,24.79
2022-08-03T21:54:00.356Z,24.76
2022-08-03T21:56:36.962Z,24.72
2022-08-03T21:59:07.058Z,24.66
2022-08-03T22:01:35.345Z,24.77
2022-08-03T22:04:07.558Z,24.61
2022-08-03T22:06:42.265Z,24.53
2022-08-03T22:09:09.047Z,24.47
2022-08-03T22:11:37.301Z,24.43
2022-08-03T22:14:04.737Z,24.38
2022-08-03T22:16:31.516Z,24.33
2022-08-03T22:18:58.011Z,24.30
2022-08-03T22:21:36.225Z,24.26
2022-08-03T22:24:05.587Z,24.22
2022-08-03T22:26:35.359Z,24.16
2022-08-03T22:29:05.954Z,24.28
2022-08-03T22:31:57.395Z,24.12
2022-08-03T22:34:26.420Z,24.05
2022-08-03T22:37:00.320Z,23.98
2022-08-03T22:39:28.959Z,23.97
2022-08-03T22:41:58.792Z,23.93
2022-08-03T22:44:26.906Z,23.89
2022-08-03T22:46:53.370Z,23.84
2022-08-03T22:49:20.617Z,23.79
2022-08-03T22:51:47.419Z,23.77
2022-08-03T22:54:14.498Z,23.70
2022-08-03T22:56:41.341Z,23.70
2022-08-03T22:59:41.232Z,23.66
2022-08-03T23:01:59.720Z,23.63
2022-08-03T23:04:28.410Z,23.60
2022-08-03T23:07:03.649Z,23.57
2022-08-03T23:09:31.280Z,23.50
2022-08-03T23:12:01.267Z,23.47
2022-08-03T23:14:30.462Z,23.44
2022-08-03T23:17:03.070Z,23.40
2022-08-03T23:19:30.479Z,23.35
2022-08-03T23:22:05.697Z,23.31
2022-08-03T23:24:36.452Z,23.26
2022-08-03T23:27:05.600Z,23.22
2022-08-03T23:29:34.868Z,23.17
2022-08-03T23:32:02.122Z,23.14
2022-08-03T23:34:49.553Z,23.06
2022-08-03T23:37:17.100Z,23.00
2022-08-03T23:39:48.011Z,22.96
2022-08-03T23:42:17.136Z,22.89
2022-08-03T23:44:45.089Z,22.83
2022-08-03T23:47:14.711Z,22.78
2022-08-03T23:49:41.315Z,22.77
2022-08-03T23:52:20.224Z,22.71
2022-08-03T23:54:51.702Z,22.66
2022-08-03T23:57:27.174Z,22.62
